Quincy, WA

1:00 PM PDT on August 22, 2014 (GMT -0700)
Winchester | Change Station
CLOSE
Current Station
Personal Weather Station
Location: Quincy, WA
Elevation: 1350 ft
Nearby Weather Stations

Elev 1350 ft 47.26 °N, 119.72 °W | Updated 18 seconds ago

Partly Cloudy
Partly Cloudy
71.4 °F
Feels Like 77 °F
N
6.0
Wind Variable Wind from NNW
Gusts 14.0 mph

Today
High -- | Low -- °F
--% Chance of Precip.
Yesterday
High -- | Low -- °F
Precip. -- in
6:05 AM 7:58 PM
Waning Crescent, 7% visible
Pressure 29.94 in
Visibility 10.0 miles
Clouds Few 6500 ft
Heat Index 77 °F
Dew Point 54 °F
Humidity 55%
Rainfall -999.00 in
Snow Depth 0 in
UV 8 out of 12
Pollen 4.10 out of 12
Air Quality Not available.
Flu Activity Not available.
METAR KEPH 221953Z AUTO 03014G20KT 10SM FEW065 27/09 A2996 RMK AO2 SLP138 T02670089

More Conditions Fewer Conditions

Pressure 29.94 in
Visibility 10.0 miles
Clouds Few 6500 ft
Heat Index 77 °F
Dew Point 54 °F
Humidity 55%
Rainfall -999.00 in
Snow Depth 0 in
UV 8 out of 12
Pollen 4.10 out of 12
Air Quality Not available.
Flu Activity Not available.
METAR KEPH 221953Z AUTO 03014G20KT 10SM FEW065 27/09 A2996 RMK AO2 SLP138 T02670089

More Conditions Fewer Conditions

10-Day Weather Forecast

Almanac

Astronomy

Aug. 22, 2014 Rise Set
Actual Time 6:05 AM PDT 7:58 PM PDT
Civil Twilight 5:33 AM PDT 8:30 PM PDT
Nautical Twilight 4:52 AM PDT 9:10 PM PDT
Astronomical Twilight 4:08 AM PDT 9:54 PM PDT
Moon 3:27 AM PDT 6:13 PM PDT
Length of Visible Light 14h 57m
Length of Day
13h 52m
Tomorrow will be 3m 9s shorter.
Waning Crescent, 7% of the Moon is Illuminated
Today
Waning Crescent
Aug 25
New
Sep 2
First Quarter
Sep 8
Full
Sep 15
Last Quarter

Today's Extremes

State Highs State Lows

Community

WunderPhotos

Upload Photos

1,746,239 photos uploaded!

Nearby

Snow Depth

Station Depth Elevation
Trough 0 in 5300 ft
Grouse Camp 0 in 5380 ft
Blewett Pass 0 in 4270 ft
Stevens Pass 0 in 4070 ft
Stampede Pass 0 in 3860 ft

Earthquake Activity

City Distance Mag. Time & Date
No recent earthquake activity has been reported nearby.
Minimum magnitude displayed is 2.5.

Coastal Water Temperatures

Place Temperature
No Stations Reporting

Nearby Weather Stations